Time;durP1;ratioP1;P1;durP2;ratioP2;P2;SDS_P1;SDS_P2;PMS_P1;PMS_P2;Temp;Humidity;BMP_temperature;BMP_pressure;BME280_temperature;BME280_humidity;BME280_pressure;Samples;Min_cycle;Max_cycle;Signal;HPM_P1;HPM_P2
2023/12/10 00:00:20;;;;;;;22.60;14.02;;;;;;;-142.91;0.00;75507.56;5060370;28;20728;-73
2023/12/10 00:02:47;;;;;;;26.65;15.43;;;;;;;23.26;0.00;75507.56;5063627;28;20226;-72
2023/12/10 00:05:14;;;;;;;27.27;15.02;;;;;;;-142.91;0.00;75507.56;5064344;28;20210;-73
2023/12/10 00:07:40;;;;;;;22.63;15.57;;;;;;;-142.91;0.00;75507.56;5065860;28;20202;-73
2023/12/10 00:10:09;;;;;;;21.33;15.35;;;;;;;;;;5049231;28;20728;-72
2023/12/10 00:12:36;;;;;;;26.35;16.25;;;;;;;-142.91;0.00;75507.56;5064745;28;20210;-72
2023/12/10 00:15:03;;;;;;;23.52;15.23;;;;;;;-142.91;0.00;75507.56;5062664;28;20263;-74
2023/12/10 00:17:30;;;;;;;22.10;15.15;;;;;;;-142.91;0.00;75507.56;5034222;28;20207;-72
2023/12/10 00:19:57;;;;;;;20.90;14.60;;;;;;;-142.91;0.00;75507.56;5035698;28;20210;-72
2023/12/10 00:22:24;;;;;;;19.60;13.75;;;;;;;-142.91;0.00;75507.56;5034100;28;20711;-72
2023/12/10 00:24:51;;;;;;;21.40;14.98;;;;;;;-142.91;0.00;75507.56;5055876;28;20233;-72
2023/12/10 00:27:19;;;;;;;21.65;14.07;;;;;;;-142.91;0.00;75507.56;5055454;28;20198;-72
2023/12/10 00:29:45;;;;;;;22.10;15.25;;;;;;;-142.91;0.00;75507.56;5058982;28;20253;-72
2023/12/10 00:32:13;;;;;;;20.77;13.40;;;;;;;;;;5064762;28;20250;-73
2023/12/10 00:34:40;;;;;;;20.15;14.52;;;;;;;-142.91;0.00;75507.56;5059672;28;20198;-73
2023/12/10 00:37:07;;;;;;;24.58;15.70;;;;;;;-142.91;0.00;75507.56;5059850;28;20208;-73
2023/12/10 00:39:34;;;;;;;23.45;15.13;;;;;;;-142.91;0.00;75507.56;5062824;28;20260;-73
2023/12/10 00:42:00;;;;;;;21.10;15.13;;;;;;;-142.91;0.00;75507.56;5059827;28;20214;-73
2023/12/10 00:44:29;;;;;;;22.27;14.02;;;;;;;-142.91;0.00;75507.56;5060218;28;20226;-73
2023/12/10 00:46:55;;;;;;;21.50;14.95;;;;;;;;;;5056178;28;20233;-72
2023/12/10 00:49:22;;;;;;;23.58;14.75;;;;;;;-142.91;0.00;75507.56;5058907;28;20202;-72
2023/12/10 00:51:49;;;;;;;22.00;15.00;;;;;;;-142.91;0.00;75507.56;5053198;28;20248;-72
2023/12/10 00:54:15;;;;;;;26.85;14.57;;;;;;;;;;5049769;28;20202;-72
2023/12/10 00:56:42;;;;;;;24.30;16.27;;;;;;;;;;5060046;28;20206;-72
2023/12/10 00:59:09;;;;;;;20.10;14.77;;;;;;;-142.91;0.00;75507.56;5047728;28;20244;-72
2023/12/10 01:01:37;;;;;;;28.10;15.77;;;;;;;-142.91;0.00;75507.56;5052423;28;20229;-72
2023/12/10 01:04:04;;;;;;;27.00;16.90;;;;;;;-142.91;0.00;75507.56;5036813;28;20206;-71
2023/12/10 01:06:31;;;;;;;21.70;14.90;;;;;;;-142.91;0.00;75507.56;5037041;28;20713;-72
2023/12/10 01:08:57;;;;;;;26.10;16.27;;;;;;;-142.91;0.00;75507.56;5029769;28;20833;-71
2023/12/10 01:11:24;;;;;;;26.30;15.52;;;;;;;-142.91;0.00;75507.56;5027669;28;20864;-73
2023/12/10 01:13:51;;;;;;;22.08;15.02;;;;;;;-142.91;0.00;75507.56;5033627;28;20214;-72
2023/12/10 01:16:18;;;;;;;24.83;14.65;;;;;;;-142.91;0.00;75507.56;5036716;28;20234;-72
2023/12/10 01:18:47;;;;;;;26.40;16.10;;;;;;;-142.91;0.00;75507.56;5036209;28;20242;-73
2023/12/10 01:21:14;;;;;;;25.83;16.88;;;;;;;-142.91;0.00;75507.56;5036311;28;20530;-74
2023/12/10 01:23:41;;;;;;;26.83;17.13;;;;;;;-142.91;0.00;75507.56;5057583;28;20217;-72
2023/12/10 01:26:09;;;;;;;22.42;16.08;;;;;;;;;;5057023;28;20225;-72
2023/12/10 01:28:35;;;;;;;25.88;16.02;;;;;;;;;;5061184;28;20198;-72
2023/12/10 01:31:02;;;;;;;25.88;15.95;;;;;;;-142.91;0.00;75507.56;5055409;28;20843;-73
2023/12/10 01:33:29;;;;;;;19.35;13.32;;;;;;;-142.91;0.00;75507.56;5046840;28;20202;-74
2023/12/10 01:35:57;;;;;;;21.58;15.35;;;;;;;-142.91;0.00;75507.56;5052960;28;20217;-72
2023/12/10 01:38:24;;;;;;;22.30;14.82;;;;;;;-142.91;0.00;75507.56;5054973;28;20195;-73
2023/12/10 01:40:50;;;;;;;25.30;15.65;;;;;;;;;;5061507;28;20206;-73
2023/12/10 01:43:17;;;;;;;25.00;15.55;;;;;;;;;;5053447;28;20206;-72
2023/12/10 01:45:44;;;;;;;25.75;16.73;;;;;;;;;;5052921;28;20209;-73
2023/12/10 01:48:10;;;;;;;25.63;15.52;;;;;;;;;;5049381;28;20340;-72
2023/12/10 01:50:39;;;;;;;25.23;17.00;;;;;;;-142.91;0.00;75507.56;5051227;28;20218;-72
2023/12/10 01:53:08;;;;;;;28.15;17.20;;;;;;;-142.91;0.00;75507.56;5050362;28;20256;-73
2023/12/10 01:55:35;;;;;;;25.95;16.98;;;;;;;-142.91;0.00;75507.56;5049465;28;20214;-71
2023/12/10 01:58:04;;;;;;;30.73;17.45;;;;;;;-142.91;0.00;75507.56;5051197;28;20739;-72
2023/12/10 02:00:30;;;;;;;22.60;16.05;;;;;;;-142.91;0.00;75507.56;5040341;28;20302;-70
2023/12/10 02:02:57;;;;;;;27.52;17.27;;;;;;;-142.91;0.00;75507.56;5033215;28;20230;-72
2023/12/10 02:05:25;;;;;;;25.98;16.42;;;;;;;-142.91;0.00;75507.56;5041060;28;21133;-72
2023/12/10 02:07:53;;;;;;;26.50;16.33;;;;;;;-142.91;0.00;75507.56;5050824;28;20195;-72
2023/12/10 02:10:21;;;;;;;24.65;17.38;;;;;;;;;;5051979;28;20226;-73
2023/12/10 02:12:52;;;;;;;28.58;17.42;;;;;;;;;;5051971;28;20276;-72
2023/12/10 02:15:19;;;;;;;24.58;16.08;;;;;;;-142.91;0.00;75507.56;5064814;28;20652;-72
2023/12/10 02:17:47;;;;;;;22.95;15.95;;;;;;;-142.91;0.00;75507.56;5064540;28;20227;-72
2023/12/10 02:20:14;;;;;;;23.58;15.20;;;;;;;-142.91;0.00;75507.56;5065064;28;20226;-75
2023/12/10 02:22:48;;;;;;;22.35;13.88;;;;;;;-142.91;0.00;75507.56;5056910;28;20238;-71
2023/12/10 02:25:15;;;;;;;23.52;14.38;;;;;;;;;;5040530;28;20322;-71
2023/12/10 02:27:45;;;;;;;21.75;13.93;;;;;;;;;;5064823;28;20264;-71
2023/12/10 02:30:13;;;;;;;21.65;15.10;;;;;;;23.25;0.00;75507.56;5066042;28;20210;-70
2023/12/10 02:32:40;;;;;;;20.90;13.82;;;;;;;;;;5050200;28;20223;-70
2023/12/10 02:35:07;;;;;;;23.83;14.88;;;;;;;-142.91;0.00;75507.56;5049796;28;20288;-71
2023/12/10 02:37:34;;;;;;;25.45;14.90;;;;;;;-142.91;0.00;75507.56;5050478;28;20289;-70
2023/12/10 02:40:01;;;;;;;20.95;14.35;;;;;;;-142.91;0.00;75507.56;5047289;28;20301;-70
2023/12/10 02:42:27;;;;;;;21.95;13.93;;;;;;;-142.91;0.00;75507.56;5050856;28;20217;-70
2023/12/10 02:44:55;;;;;;;21.15;13.68;;;;;;;;;;5052372;28;20234;-71
2023/12/10 02:47:22;;;;;;;21.05;13.35;;;;;;;-142.91;0.00;75507.56;5060803;28;20347;-71
2023/12/10 02:49:48;;;;;;;19.85;13.93;;;;;;;-142.91;0.00;75507.56;5060551;28;20695;-70
2023/12/10 02:52:16;;;;;;;19.98;13.88;;;;;;;-142.91;0.00;75507.56;5051888;28;20230;-69
2023/12/10 02:54:43;;;;;;;19.92;13.57;;;;;;;-142.91;0.00;75507.56;5060050;28;20296;-70
2023/12/10 02:57:09;;;;;;;18.83;14.23;;;;;;;-142.91;0.00;75507.56;5064654;28;20279;-70
2023/12/10 02:59:36;;;;;;;28.67;14.82;;;;;;;-142.91;0.00;75507.56;5065531;28;20409;-73
2023/12/10 03:02:04;;;;;;;24.25;14.35;;;;;;;-142.91;0.00;75507.56;5065768;28;20668;-71
2023/12/10 03:04:30;;;;;;;22.38;12.27;;;;;;;-142.91;0.00;75507.56;5066860;28;20716;-71
2023/12/10 03:06:57;;;;;;;24.15;13.77;;;;;;;-142.91;0.00;75507.56;5065488;28;20234;-70
2023/12/10 03:09:24;;;;;;;22.30;14.75;;;;;;;-142.91;0.00;75507.56;5066055;28;20240;-71
2023/12/10 03:11:50;;;;;;;24.10;14.00;;;;;;;-142.91;0.00;75507.56;5065017;28;20305;-71
2023/12/10 03:14:17;;;;;;;24.33;15.35;;;;;;;-142.91;0.00;75507.56;5063302;28;20339;-70
2023/12/10 03:16:44;;;;;;;25.20;16.58;;;;;;;-142.91;0.00;75507.56;5065706;28;20292;-70
2023/12/10 03:19:12;;;;;;;24.55;16.00;;;;;;;-142.91;0.00;75507.56;5065305;28;20206;-71
2023/12/10 03:21:38;;;;;;;21.52;14.38;;;;;;;-142.91;0.00;75507.56;5064873;28;20190;-71
2023/12/10 03:24:05;;;;;;;22.80;14.27;;;;;;;;;;5065237;28;20264;-71
2023/12/10 03:26:32;;;;;;;24.98;13.95;;;;;;;-142.91;0.00;75507.56;5065361;28;20233;-72
2023/12/10 03:28:58;;;;;;;19.73;12.82;;;;;;;-142.91;0.00;75507.56;5064853;28;20613;-71
2023/12/10 03:31:25;;;;;;;21.63;15.30;;;;;;;-142.91;0.00;75507.56;5053158;28;20250;-70
2023/12/10 03:33:52;;;;;;;24.23;15.27;;;;;;;-142.91;0.00;75507.56;5049608;28;20206;-71
2023/12/10 03:36:20;;;;;;;21.50;15.48;;;;;;;-142.91;0.00;75507.56;5052591;28;20234;-70
2023/12/10 03:38:47;;;;;;;25.95;16.42;;;;;;;-142.91;0.00;75507.56;5049750;28;20202;-70
2023/12/10 03:41:14;;;;;;;26.55;17.13;;;;;;;-142.91;0.00;75507.56;5050098;28;20212;-73
2023/12/10 03:43:41;;;;;;;23.80;13.93;;;;;;;-142.91;0.00;75507.56;5050517;28;20749;-71
2023/12/10 03:46:07;;;;;;;24.08;15.68;;;;;;;-142.91;0.00;75507.56;5054249;28;20225;-70
2023/12/10 03:48:34;;;;;;;22.77;14.93;;;;;;;-142.91;0.00;75507.56;5050545;28;20296;-71
2023/12/10 03:51:00;;;;;;;23.02;16.33;;;;;;;-142.91;0.00;75507.56;5050152;28;20258;-71
2023/12/10 03:53:28;;;;;;;25.30;16.65;;;;;;;-142.91;0.00;75507.56;5050855;28;20198;-73
2023/12/10 03:55:55;;;;;;;21.42;14.23;;;;;;;-142.91;0.00;75507.56;5052498;28;20684;-72
2023/12/10 03:58:22;;;;;;;27.65;16.40;;;;;;;-142.91;0.00;75507.56;5067859;28;20307;-72
2023/12/10 04:00:48;;;;;;;27.38;15.23;;;;;;;-142.91;0.00;75507.56;5068432;28;20753;-71
2023/12/10 04:03:15;;;;;;;21.17;14.52;;;;;;;-142.91;0.00;75507.56;5068547;28;20971;-72
2023/12/10 04:05:42;;;;;;;21.00;14.23;;;;;;;-142.91;0.00;75507.56;5067385;28;20664;-72
2023/12/10 04:08:08;;;;;;;21.65;15.10;;;;;;;-142.91;0.00;75507.56;5066862;28;20198;-71
2023/12/10 04:10:36;;;;;;;23.83;14.50;;;;;;;-142.91;0.00;75507.56;5064446;28;20263;-71
2023/12/10 04:13:03;;;;;;;24.80;14.90;;;;;;;-142.91;0.00;75507.56;5063631;28;20291;-70
2023/12/10 04:15:30;;;;;;;27.45;15.45;;;;;;;-142.91;0.00;75507.56;5064306;28;20264;-70
2023/12/10 04:17:56;;;;;;;22.40;15.30;;;;;;;-142.91;0.00;75507.56;5065087;28;20198;-69
2023/12/10 04:20:23;;;;;;;29.27;16.83;;;;;;;-142.91;0.00;75507.56;5065410;28;20259;-70
2023/12/10 04:22:50;;;;;;;22.90;16.00;;;;;;;-142.91;0.00;75507.56;5059389;28;20230;-70
2023/12/10 04:25:16;;;;;;;23.98;16.10;;;;;;;;;;5062633;28;20260;-70
2023/12/10 04:27:44;;;;;;;25.48;15.90;;;;;;;-142.91;0.00;75507.56;5064532;28;20252;-69
2023/12/10 04:30:12;;;;;;;25.55;15.40;;;;;;;-142.91;0.00;75507.56;5064715;28;20206;-71
2023/12/10 04:32:38;;;;;;;25.15;16.13;;;;;;;-142.91;0.00;75507.56;5064227;28;20226;-71
2023/12/10 04:35:05;;;;;;;24.17;15.55;;;;;;;-142.91;0.00;75507.56;5064017;28;20279;-71
2023/12/10 04:37:32;;;;;;;24.88;16.20;;;;;;;-142.91;0.00;75507.56;5064505;28;20222;-71
2023/12/10 04:39:59;;;;;;;24.50;15.55;;;;;;;-142.91;0.00;75507.56;5063467;28;20225;-70
2023/12/10 04:42:25;;;;;;;24.90;15.73;;;;;;;-142.91;0.00;75507.56;5064653;28;20222;-71
2023/12/10 04:44:53;;;;;;;28.65;16.92;;;;;;;-142.91;0.00;75507.56;5063814;28;20723;-70
2023/12/10 04:47:21;;;;;;;24.02;15.65;;;;;;;-142.91;0.00;75507.56;5063979;28;20226;-71
2023/12/10 04:49:47;;;;;;;24.42;15.73;;;;;;;-142.91;0.00;75507.56;5063871;28;20241;-70
2023/12/10 04:52:14;;;;;;;21.85;14.55;;;;;;;-142.91;0.00;75507.56;5063142;28;20292;-71
2023/12/10 04:54:40;;;;;;;27.02;16.40;;;;;;;-142.91;0.00;75507.56;5064311;28;20284;-70
2023/12/10 04:57:07;;;;;;;28.92;16.27;;;;;;;-142.91;0.00;75507.56;5063667;28;20222;-70
2023/12/10 04:59:34;;;;;;;26.80;17.33;;;;;;;-142.91;0.00;75507.56;5062980;28;20282;-70
2023/12/10 05:02:02;;;;;;;28.50;18.48;;;;;;;-142.91;0.00;75507.56;5063963;28;20730;-70
2023/12/10 05:04:29;;;;;;;26.45;16.27;;;;;;;-142.91;0.00;75507.56;5062457;28;20584;-70
2023/12/10 05:06:55;;;;;;;24.83;16.00;;;;;;;-142.91;0.00;75507.56;5063248;28;20672;-71
2023/12/10 05:09:22;;;;;;;22.88;13.85;;;;;;;-142.91;0.00;75507.56;5063378;28;20280;-70
2023/12/10 05:11:48;;;;;;;23.20;14.90;;;;;;;-142.91;0.00;75507.56;5064053;28;20375;-70
2023/12/10 05:14:15;;;;;;;21.33;14.43;;;;;;;-142.91;0.00;75507.56;5062423;28;20206;-70
2023/12/10 05:16:42;;;;;;;22.10;15.63;;;;;;;-142.91;0.00;75507.56;5062465;28;20225;-70
2023/12/10 05:19:10;;;;;;;24.52;16.08;;;;;;;-142.91;0.00;75507.56;5062702;28;20299;-70
2023/12/10 05:21:36;;;;;;;28.13;16.42;;;;;;;-142.91;0.00;75507.56;5065452;28;20251;-75
2023/12/10 05:24:04;;;;;;;26.25;14.82;;;;;;;-142.91;0.00;75507.56;5067212;28;20203;-70
2023/12/10 05:26:30;;;;;;;24.52;15.45;;;;;;;-142.91;0.00;75507.56;5076454;28;20267;-70
2023/12/10 05:28:57;;;;;;;26.83;16.95;;;;;;;-142.91;0.00;75507.56;5075131;28;20291;-70
2023/12/10 05:31:24;;;;;;;23.33;14.95;;;;;;;-142.91;0.00;75507.56;5064082;28;20226;-70
2023/12/10 05:33:50;;;;;;;23.50;15.23;;;;;;;-142.91;0.00;75507.56;5066340;28;20202;-69
2023/12/10 05:36:18;;;;;;;26.27;16.02;;;;;;;-142.91;0.00;75507.56;5067654;28;20942;-70
2023/12/10 05:38:45;;;;;;;28.10;14.25;;;;;;;-142.91;0.00;75507.56;5062537;28;20206;-70
2023/12/10 05:41:12;;;;;;;27.05;15.15;;;;;;;-142.91;0.00;75507.56;5068448;28;20198;-70
2023/12/10 05:43:38;;;;;;;23.90;14.57;;;;;;;-142.91;0.00;75507.56;5068034;28;20202;-72
2023/12/10 05:46:05;;;;;;;23.27;15.07;;;;;;;-142.91;0.00;75507.56;5068328;28;20743;-70
2023/12/10 05:48:33;;;;;;;23.90;14.18;;;;;;;-142.91;0.00;75507.56;5067384;28;20195;-69
2023/12/10 05:50:59;;;;;;;24.02;15.45;;;;;;;-142.91;0.00;75507.56;5068376;28;20753;-71
2023/12/10 05:53:27;;;;;;;26.67;14.35;;;;;;;;;;5068482;28;20654;-70
2023/12/10 05:55:54;;;;;;;26.70;15.95;;;;;;;-142.91;0.00;75507.56;5068431;28;20206;-70
2023/12/10 05:58:20;;;;;;;23.60;14.43;;;;;;;;;;5067652;28;20311;-70
2023/12/10 06:00:47;;;;;;;22.35;15.68;;;;;;;-142.91;0.00;75507.56;5068391;28;20264;-70
2023/12/10 06:03:14;;;;;;;25.25;14.38;;;;;;;-142.91;0.00;75507.56;5067527;28;20195;-71
2023/12/10 06:05:40;;;;;;;22.27;14.55;;;;;;;-142.91;0.00;75507.56;5066060;28;20767;-70
2023/12/10 06:08:09;;;;;;;23.30;15.27;;;;;;;-142.91;0.00;75507.56;5065414;28;20657;-70
2023/12/10 06:10:37;;;;;;;24.88;15.60;;;;;;;;;;5064769;28;20699;-70
2023/12/10 06:13:04;;;;;;;25.42;15.32;;;;;;;-142.91;0.00;75507.56;5067362;28;20258;-71
2023/12/10 06:15:30;;;;;;;23.88;15.20;;;;;;;-142.91;0.00;75507.56;5067239;28;20205;-70
2023/12/10 06:17:57;;;;;;;23.17;14.65;;;;;;;-142.91;0.00;75507.56;5064176;28;20230;-72
2023/12/10 06:20:24;;;;;;;21.52;13.52;;;;;;;-142.91;0.00;75507.56;5065159;28;20198;-73
2023/12/10 06:22:50;;;;;;;21.48;14.40;;;;;;;-142.91;0.00;75507.56;5064654;28;20315;-71
2023/12/10 06:25:17;;;;;;;24.33;14.73;;;;;;;-142.91;0.00;75507.56;5065276;28;20256;-71
2023/12/10 06:27:45;;;;;;;23.55;14.32;;;;;;;-142.91;0.00;75507.56;5064262;28;20211;-71
2023/12/10 06:30:12;;;;;;;23.00;16.08;;;;;;;;;;5065004;28;20272;-71
2023/12/10 06:32:39;;;;;;;25.45;15.65;;;;;;;-142.91;0.00;75507.56;5065940;28;20226;-71
2023/12/10 06:35:06;;;;;;;25.83;15.43;;;;;;;-142.91;0.00;75507.56;5066502;28;20292;-71
2023/12/10 06:37:33;;;;;;;23.90;15.45;;;;;;;-142.91;0.00;75507.56;5066996;28;20650;-72
2023/12/10 06:39:59;;;;;;;33.15;19.10;;;;;;;-142.91;0.00;75507.56;5067143;28;20687;-71
2023/12/10 06:42:27;;;;;;;28.42;18.00;;;;;;;-142.91;0.00;75507.56;5065714;28;20229;-71
2023/12/10 06:44:55;;;;;;;26.20;16.85;;;;;;;-142.91;0.00;75507.56;5065005;28;20320;-71
2023/12/10 06:47:22;;;;;;;30.70;19.02;;;;;;;-142.91;0.00;75507.56;5065685;28;20297;-72
2023/12/10 06:49:49;;;;;;;27.55;18.20;;;;;;;-142.91;0.00;75507.56;5066707;28;20279;-71
2023/12/10 06:52:15;;;;;;;26.98;16.65;;;;;;;-142.91;0.00;75507.56;5067370;28;20246;-71
2023/12/10 06:54:42;;;;;;;25.63;16.15;;;;;;;-142.91;0.00;75507.56;5065783;28;20249;-71
2023/12/10 06:57:09;;;;;;;24.65;16.02;;;;;;;-142.91;0.00;75507.56;5066337;28;20295;-70
2023/12/10 06:59:36;;;;;;;23.33;15.38;;;;;;;-142.91;0.00;75507.56;5065615;28;20270;-70
2023/12/10 07:02:04;;;;;;;26.38;15.63;;;;;;;-142.91;0.00;75507.56;5064372;28;20222;-70
2023/12/10 07:04:31;;;;;;;27.08;16.05;;;;;;;-142.91;0.00;75507.56;5066226;28;20283;-70
2023/12/10 07:06:57;;;;;;;26.63;15.68;;;;;;;-142.91;0.00;75507.56;5066106;28;21654;-71
2023/12/10 07:09:24;;;;;;;22.25;15.13;;;;;;;-142.91;0.00;75507.56;5066090;28;20206;-70
2023/12/10 07:11:51;;;;;;;23.42;15.10;;;;;;;-142.91;0.00;75507.56;5066835;28;20258;-71
2023/12/10 07:14:17;;;;;;;24.60;14.88;;;;;;;;;;5065565;28;20206;-71
2023/12/10 07:16:44;;;;;;;19.77;14.00;;;;;;;23.25;0.00;75507.56;5065851;28;20234;-71
2023/12/10 07:19:12;;;;;;;19.17;13.40;;;;;;;23.25;0.00;75507.56;5065777;28;20233;-72
2023/12/10 07:21:39;;;;;;;16.88;12.75;;;;;;;23.25;0.00;75507.56;5066018;28;20325;-72
2023/12/10 07:24:06;;;;;;;23.25;15.00;;;;;;;23.25;0.00;75507.56;5065115;28;20198;-71
2023/12/10 07:26:32;;;;;;;21.33;14.27;;;;;;;23.25;0.00;75507.56;5065502;28;20260;-71
2023/12/10 07:28:59;;;;;;;16.92;12.85;;;;;;;23.26;0.00;75507.56;5064013;28;20198;-71
2023/12/10 07:31:26;;;;;;;18.65;12.18;;;;;;;23.26;0.00;75507.56;5065582;28;20245;-71
2023/12/10 07:33:52;;;;;;;16.52;11.40;;;;;;;;;;5064166;28;20989;-71
2023/12/10 07:36:20;;;;;;;19.40;13.05;;;;;;;23.25;0.00;75507.56;5064723;28;20668;-73
2023/12/10 07:38:47;;;;;;;17.58;12.00;;;;;;;23.25;0.00;75507.56;5064787;28;20234;-70
2023/12/10 07:41:14;;;;;;;22.73;13.45;;;;;;;23.25;0.00;75507.56;5065170;28;20234;-72
2023/12/10 07:43:40;;;;;;;18.67;12.85;;;;;;;23.25;0.00;75507.56;5065082;28;20283;-71
2023/12/10 07:46:07;;;;;;;14.52;11.57;;;;;;;;;;5065091;28;20202;-73
2023/12/10 07:48:34;;;;;;;19.27;13.80;;;;;;;-142.91;0.00;75507.56;5064740;28;20198;-71
2023/12/10 07:51:01;;;;;;;23.25;13.73;;;;;;;23.25;0.00;75507.56;5064733;28;20206;-73
2023/12/10 07:53:29;;;;;;;19.13;13.77;;;;;;;23.25;0.00;75507.56;5064813;28;20214;-72
2023/12/10 07:55:56;;;;;;;19.35;14.18;;;;;;;23.26;0.00;75507.56;5064911;28;20230;-72
2023/12/10 07:58:23;;;;;;;19.90;14.10;;;;;;;-142.91;0.00;75507.56;5064513;28;20265;-71
2023/12/10 08:00:49;;;;;;;18.83;13.65;;;;;;;-142.91;0.00;75507.56;5065116;28;20198;-72
2023/12/10 08:03:16;;;;;;;20.50;13.38;;;;;;;;;;5065190;28;20682;-72
2023/12/10 08:05:42;;;;;;;22.48;14.00;;;;;;;;;;5065300;28;20209;-71
2023/12/10 08:08:09;;;;;;;19.55;14.40;;;;;;;;;;5065015;28;20214;-71
2023/12/10 08:10:37;;;;;;;24.95;14.52;;;;;;;-142.91;0.00;75507.56;5064843;28;20199;-70
2023/12/10 08:13:04;;;;;;;22.25;16.17;;;;;;;-142.91;0.00;75507.56;5064452;28;20784;-70
2023/12/10 08:15:30;;;;;;;21.40;14.35;;;;;;;-142.91;0.00;75507.56;5062494;28;20258;-72
2023/12/10 08:17:57;;;;;;;23.05;14.27;;;;;;;-142.91;0.00;75507.56;5062851;28;20230;-72
2023/12/10 08:20:24;;;;;;;21.15;13.32;;;;;;;-142.91;0.00;75507.56;5063164;28;20342;-72
2023/12/10 08:22:51;;;;;;;22.52;13.77;;;;;;;-142.91;0.00;75507.56;5062863;28;20249;-72
2023/12/10 08:25:17;;;;;;;19.55;13.48;;;;;;;;;;5063667;28;21517;-71
2023/12/10 08:27:45;;;;;;;23.92;14.52;;;;;;;-142.91;0.00;75507.56;5062656;28;20233;-71
2023/12/10 08:30:13;;;;;;;21.58;13.98;;;;;;;-142.91;0.00;75507.56;5062425;28;20234;-71
2023/12/10 08:32:40;;;;;;;19.25;13.10;;;;;;;-142.91;0.00;75507.56;5062592;28;20338;-71
2023/12/10 08:35:07;;;;;;;25.15;15.52;;;;;;;-142.91;0.00;75507.56;5064205;28;20230;-71
2023/12/10 08:37:33;;;;;;;22.38;14.52;;;;;;;-142.91;0.00;75507.56;5064496;28;20249;-72
2023/12/10 08:40:02;;;;;;;22.90;14.32;;;;;;;-142.91;0.00;75507.56;5062791;28;20248;-72
2023/12/10 08:42:30;;;;;;;18.25;12.65;;;;;;;;;;5064235;28;20256;-71
2023/12/10 08:44:58;;;;;;;19.90;13.63;;;;;;;-142.91;0.00;75507.56;5064133;28;20210;-72
2023/12/10 08:47:25;;;;;;;21.08;14.27;;;;;;;-142.91;0.00;75507.56;5064203;28;20893;-71
2023/12/10 08:49:52;;;;;;;11.05;8.68;;;;;;;;;;5063934;28;20287;-71
2023/12/10 08:52:19;;;;;;;15.25;10.20;;;;;;;-142.91;0.00;75507.56;5063693;28;20220;-70
2023/12/10 08:54:45;;;;;;;14.80;11.27;;;;;;;;;;5063619;28;20634;-73
2023/12/10 08:57:13;;;;;;;13.85;11.40;;;;;;;-142.91;0.00;75507.56;5063439;28;20260;-72
2023/12/10 08:59:40;;;;;;;19.42;12.02;;;;;;;-142.91;0.00;75507.56;5062760;28;20723;-70
2023/12/10 09:02:08;;;;;;;18.85;13.05;;;;;;;-142.91;0.00;75507.56;5063653;28;20279;-70
2023/12/10 09:04:34;;;;;;;17.50;12.10;;;;;;;;;;5064167;28;20226;-71
2023/12/10 09:07:01;;;;;;;15.20;11.55;;;;;;;-142.91;0.00;75507.56;5063247;28;20586;-71
2023/12/10 09:09:28;;;;;;;18.88;12.73;;;;;;;;;;5063047;28;21048;-72
2023/12/10 09:11:54;;;;;;;17.00;12.70;;;;;;;;;;5062278;28;20324;-72
2023/12/10 09:14:21;;;;;;;19.42;13.20;;;;;;;-142.91;0.00;75507.56;5059351;28;20725;-75
2023/12/10 09:16:47;;;;;;;21.20;14.93;;;;;;;;;;5062044;28;20645;-72
2023/12/10 09:19:16;;;;;;;21.88;15.27;;;;;;;;;;5058778;28;20207;-72
2023/12/10 09:21:43;;;;;;;17.38;13.88;;;;;;;;;;5063620;28;20210;-72
2023/12/10 09:24:09;;;;;;;23.20;12.55;;;;;;;;;;5063537;28;20636;-72
2023/12/10 09:26:36;;;;;;;22.67;14.20;;;;;;;;;;5059266;28;20279;-72
2023/12/10 09:29:03;;;;;;;20.75;13.68;;;;;;;-142.91;0.00;75507.56;5063188;28;20688;-73
2023/12/10 09:31:29;;;;;;;19.70;13.38;;;;;;;;;;5062673;28;20313;-73
2023/12/10 09:33:56;;;;;;;21.15;13.77;;;;;;;;;;5062991;28;20258;-72
2023/12/10 09:36:25;;;;;;;22.77;14.18;;;;;;;;;;5064137;28;20209;-73
2023/12/10 09:38:52;;;;;;;20.08;13.20;;;;;;;;;;5061165;28;20203;-73
2023/12/10 09:41:18;;;;;;;26.20;13.73;;;;;;;-142.91;0.00;75507.56;5057479;28;20260;-72
2023/12/10 09:43:45;;;;;;;19.55;12.40;;;;;;;-142.91;0.00;75507.56;5063155;28;20721;-72
2023/12/10 09:46:12;;;;;;;22.25;15.48;;;;;;;-142.91;0.00;75507.56;5063359;28;20319;-74
2023/12/10 09:48:41;;;;;;;19.05;14.02;;;;;;;-142.91;0.00;75507.56;5062995;28;20209;-72
2023/12/10 09:51:08;;;;;;;17.50;13.07;;;;;;;;;;5062746;28;20195;-70
2023/12/10 09:53:35;;;;;;;23.33;13.07;;;;;;;;;;5062786;28;20255;-71
2023/12/10 09:56:02;;;;;;;17.90;13.18;;;;;;;;;;5063856;28;20280;-70
2023/12/10 09:58:29;;;;;;;20.17;14.82;;;;;;;-142.91;0.00;75507.56;5063258;28;20745;-72
2023/12/10 10:00:56;;;;;;;18.52;13.38;;;;;;;-142.91;0.00;75507.56;5062928;28;20671;-72
2023/12/10 10:03:25;;;;;;;22.35;13.57;;;;;;;-142.91;0.00;75507.56;5063696;28;20226;-73
2023/12/10 10:05:54;;;;;;;20.17;13.88;;;;;;;-142.91;0.00;75507.56;5063265;28;20199;-71
2023/12/10 10:08:20;;;;;;;18.25;12.18;;;;;;;-142.91;0.00;75507.56;5062889;28;20203;-71
2023/12/10 10:10:48;;;;;;;15.35;11.90;;;;;;;-142.91;0.00;75507.56;5058115;28;20230;-71
2023/12/10 10:13:15;;;;;;;20.83;13.50;;;;;;;-142.91;0.00;75507.56;5063167;28;20265;-70
2023/12/10 10:15:41;;;;;;;19.42;13.90;;;;;;;;;;5061934;28;20226;-70
2023/12/10 10:18:10;;;;;;;22.80;14.73;;;;;;;;;;5062399;28;20260;-72
2023/12/10 10:20:39;;;;;;;20.23;13.93;;;;;;;;;;5064857;28;20285;-70
2023/12/10 10:23:06;;;;;;;26.88;15.02;;;;;;;23.25;0.00;75507.56;5065153;28;20199;-69
2023/12/10 10:25:32;;;;;;;22.33;14.65;;;;;;;23.25;0.00;75507.56;5065640;28;20194;-73
2023/12/10 10:28:00;;;;;;;21.77;14.73;;;;;;;;;;5059717;28;20241;-70
2023/12/10 10:30:26;;;;;;;28.85;14.73;;;;;;;;;;5050835;28;20238;-70
2023/12/10 10:32:55;;;;;;;25.83;15.43;;;;;;;;;;5048953;28;20316;-71
2023/12/10 10:35:22;;;;;;;28.95;13.57;;;;;;;23.25;0.00;75507.56;5049678;28;20232;-72
2023/12/10 10:37:49;;;;;;;29.15;15.95;;;;;;;;;;5060548;28;20672;-72
2023/12/10 10:40:16;;;;;;;23.73;14.57;;;;;;;-142.91;0.00;75507.56;5066101;28;20199;-70
2023/12/10 10:42:44;;;;;;;25.83;14.80;;;;;;;;;;5066654;28;20256;-72
2023/12/10 10:45:12;;;;;;;20.45;13.07;;;;;;;;;;5064520;28;20707;-71
2023/12/10 10:47:38;;;;;;;20.50;12.57;;;;;;;23.26;0.00;75507.56;5066711;28;20195;-71
2023/12/10 10:50:06;;;;;;;21.50;14.23;;;;;;;;;;5063555;28;20230;-70
2023/12/10 10:52:33;;;;;;;21.55;14.30;;;;;;;;;;5064176;28;20207;-72
2023/12/10 10:55:01;;;;;;;23.38;14.30;;;;;;;33.65;0.00;75507.56;5047212;28;20279;-72
2023/12/10 10:57:28;;;;;;;24.27;14.18;;;;;;;;;;5035696;28;20206;-72
2023/12/10 10:59:54;;;;;;;30.23;15.32;;;;;;;23.27;0.00;75507.56;5036033;28;20352;-73
2023/12/10 11:02:23;;;;;;;22.88;14.68;;;;;;;;;;5035871;28;20234;-71
2023/12/10 11:04:50;;;;;;;23.75;14.25;;;;;;;;;;5036245;28;20367;-70
2023/12/10 11:07:17;;;;;;;24.13;12.98;;;;;;;;;;5035025;28;20199;-72
2023/12/10 11:10:13;;;;;;;16.35;12.30;;;;;;;23.25;0.00;75507.56;5038881;28;20222;-73
2023/12/10 11:12:48;;;;;;;19.67;12.93;;;;;;;23.27;0.00;75507.56;5038631;28;20210;-72
2023/12/10 11:15:26;;;;;;;21.10;13.80;;;;;;;23.25;0.00;75507.56;5045477;28;20214;-74
2023/12/10 11:18:00;;;;;;;26.50;13.15;;;;;;;-142.91;0.00;75507.56;5040492;28;20271;-74
2023/12/10 11:20:39;;;;;;;22.33;13.88;;;;;;;-142.91;0.00;75507.56;5038424;28;20271;-72
2023/12/10 11:25:55;;;;;;;24.70;12.85;;;;;;;23.25;0.00;75507.56;5041436;28;20274;-73
2023/12/10 11:28:29;;;;;;;21.25;12.48;;;;;;;23.33;0.00;75507.56;5042871;28;20202;-75
2023/12/10 11:30:56;;;;;;;21.02;12.30;;;;;;;23.25;0.00;75507.56;5037341;28;20657;-73
2023/12/10 11:33:24;;;;;;;18.58;13.27;;;;;;;23.25;0.00;75507.56;5037660;28;20237;-74
2023/12/10 11:35:50;;;;;;;17.67;13.07;;;;;;;23.27;0.00;75507.56;5034506;28;20207;-74
2023/12/10 11:38:17;;;;;;;22.55;13.00;;;;;;;23.25;0.00;75507.56;5032208;28;20649;-74
2023/12/10 11:40:44;;;;;;;20.27;12.75;;;;;;;23.25;0.00;75507.56;5034224;28;20213;-73
2023/12/10 11:48:38;;;;;;;19.83;13.45;;;;;;;;;;5054231;28;20218;-74
2023/12/10 11:51:05;;;;;;;22.40;12.73;;;;;;;23.26;0.00;75507.56;5056699;28;20202;-73
2023/12/10 11:53:32;;;;;;;22.85;14.35;;;;;;;23.26;0.00;75507.56;5053834;28;20230;-72